createdAt,value
2022-10-15T00:02:06.694Z,8.13
2022-10-15T00:07:05.405Z,8.50
2022-10-15T00:12:04.357Z,8.02
2022-10-15T00:17:03.080Z,8.32
2022-10-15T00:27:05.903Z,7.78
2022-10-15T00:32:04.695Z,7.40
2022-10-15T00:37:03.505Z,7.93
2022-10-15T00:42:02.921Z,8.43
2022-10-15T00:47:18.989Z,9.32
2022-10-15T00:52:23.804Z,9.18
2022-10-15T00:57:24.971Z,8.15
2022-10-15T01:02:23.840Z,9.35
2022-10-15T01:07:22.843Z,8.63
2022-10-15T01:12:49.499Z,8.77
2022-10-15T01:18:26.811Z,9.05
2022-10-15T01:23:54.979Z,8.23
2022-10-15T01:28:59.781Z,8.40
2022-10-15T01:39:43.051Z,8.63
2022-10-15T01:44:52.537Z,8.75
2022-10-15T01:50:13.837Z,8.95
2022-10-15T01:55:15.503Z,9.35
2022-10-15T02:00:14.395Z,8.80
2022-10-15T02:05:24.329Z,8.70
2022-10-15T02:10:34.729Z,9.65
2022-10-15T02:15:45.927Z,9.55
2022-10-15T02:20:58.533Z,8.43
2022-10-15T02:32:54.218Z,9.48
2022-10-15T02:37:56.122Z,9.57
2022-10-15T02:42:56.273Z,9.48
2022-10-15T02:47:55.520Z,9.10
2022-10-15T02:52:56.093Z,9.52
2022-10-15T02:57:54.754Z,10.15
2022-10-15T03:02:53.822Z,9.13
2022-10-15T03:07:52.946Z,9.38
2022-10-15T03:12:51.997Z,9.90
2022-10-15T03:17:51.353Z,10.07
2022-10-15T03:22:50.198Z,10.57
2022-10-15T03:27:48.985Z,9.32
2022-10-15T03:32:56.360Z,9.45
2022-10-15T03:37:55.222Z,9.25
2022-10-15T03:42:56.491Z,9.07
2022-10-15T03:47:56.556Z,9.48
2022-10-15T03:52:58.309Z,9.43
2022-10-15T03:57:57.209Z,9.32
2022-10-15T04:02:56.138Z,9.38
2022-10-15T04:07:58.278Z,8.73
2022-10-15T04:12:58.771Z,9.65
2022-10-15T04:17:58.519Z,9.88
2022-10-15T04:22:59.826Z,8.85
2022-10-15T04:27:59.772Z,6.30
2022-10-15T04:32:58.676Z,6.82
2022-10-15T04:37:59.668Z,7.43
2022-10-15T04:43:01.890Z,7.75
2022-10-15T04:48:00.818Z,8.02
2022-10-15T04:52:59.663Z,8.77
2022-10-15T04:58:00.316Z,9.70
2022-10-15T05:03:02.904Z,9.05
2022-10-15T05:08:29.211Z,9.35
2022-10-15T05:13:48.557Z,8.57
2022-10-15T05:18:49.443Z,9.00
2022-10-15T05:23:50.263Z,9.52
2022-10-15T05:29:07.611Z,8.77
2022-10-15T05:34:08.339Z,9.45
2022-10-15T05:39:29.512Z,9.70
2022-10-15T05:44:28.599Z,7.97
2022-10-15T05:49:27.267Z,9.77
2022-10-15T05:54:36.332Z,8.93
2022-10-15T05:59:35.051Z,9.07
2022-10-15T06:04:35.713Z,9.20
2022-10-15T06:09:35.000Z,10.13
2022-10-15T06:14:33.709Z,9.13
2022-10-15T06:19:33.327Z,8.95
2022-10-15T06:24:32.038Z,9.20
2022-10-15T06:29:31.022Z,9.05
2022-10-15T06:34:33.434Z,8.60
2022-10-15T06:39:32.208Z,8.68
2022-10-15T06:44:30.863Z,8.35
2022-10-15T06:49:29.608Z,9.48
2022-10-15T06:54:28.373Z,8.30
2022-10-15T06:59:27.143Z,8.88
2022-10-15T07:04:27.498Z,7.45
2022-10-15T07:09:26.368Z,9.15
2022-10-15T07:14:25.080Z,6.95
2022-10-15T07:19:24.079Z,7.70
2022-10-15T07:24:22.771Z,7.80
2022-10-15T07:29:21.579Z,8.32
2022-10-15T07:34:20.542Z,7.50
2022-10-15T07:39:19.682Z,7.03
2022-10-15T07:44:18.429Z,6.65
2022-10-15T07:49:17.155Z,6.10
2022-10-15T07:54:17.112Z,5.28
2022-10-15T07:59:15.808Z,5.18
2022-10-15T08:04:14.446Z,5.60
2022-10-15T08:09:14.042Z,5.47
2022-10-15T08:14:12.899Z,4.95
2022-10-15T08:19:11.631Z,4.93
2022-10-15T08:24:10.523Z,4.72
2022-10-15T08:29:10.934Z,4.38
2022-10-15T08:34:09.815Z,4.35
2022-10-15T08:39:09.286Z,3.95
2022-10-15T08:44:20.323Z,4.25
2022-10-15T08:49:34.176Z,4.05
2022-10-15T08:54:35.553Z,3.88
2022-10-15T08:59:43.524Z,3.90
2022-10-15T09:04:53.627Z,4.13
2022-10-15T09:10:13.029Z,4.13
2022-10-15T09:15:23.968Z,3.80
2022-10-15T09:20:36.949Z,3.85
2022-10-15T09:25:36.977Z,3.70
2022-10-15T09:30:49.550Z,3.50
2022-10-15T09:36:06.829Z,5.20
2022-10-15T09:41:25.271Z,4.18
2022-10-15T09:46:23.945Z,3.58
2022-10-15T09:51:34.214Z,3.50
2022-10-15T09:56:39.674Z,3.30
2022-10-15T10:01:38.506Z,2.88
2022-10-15T10:06:52.328Z,3.40
2022-10-15T10:11:54.942Z,3.40
2022-10-15T10:17:20.502Z,3.45
2022-10-15T10:22:20.346Z,2.83
2022-10-15T10:27:27.967Z,2.67
2022-10-15T10:32:31.167Z,2.65
2022-10-15T10:37:42.551Z,3.08
2022-10-15T10:42:42.793Z,3.08
2022-10-15T10:47:44.173Z,3.10
2022-10-15T10:52:45.475Z,3.15
2022-10-15T10:57:50.760Z,3.08
2022-10-15T11:02:52.105Z,2.78
2022-10-15T11:08:12.644Z,2.60
2022-10-15T11:13:17.418Z,2.95
2022-10-15T11:18:48.075Z,2.30
2022-10-15T11:24:11.331Z,2.70
2022-10-15T11:29:28.804Z,2.30
2022-10-15T11:34:42.880Z,2.67
2022-10-15T11:39:55.163Z,2.78
2022-10-15T11:45:00.711Z,2.90
2022-10-15T11:50:33.205Z,2.70
2022-10-15T11:55:39.450Z,2.20
2022-10-15T12:00:53.932Z,2.42
2022-10-15T12:05:59.585Z,2.80
2022-10-15T12:11:25.058Z,2.67
2022-10-15T12:16:30.309Z,1.30
2022-10-15T12:21:44.250Z,1.30
2022-10-15T12:26:43.018Z,1.10
2022-10-15T12:31:44.394Z,0.85
2022-10-15T12:36:43.220Z,0.80
2022-10-15T12:41:45.432Z,0.60
2022-10-15T12:46:44.352Z,0.68
2022-10-15T12:51:43.322Z,0.63
2022-10-15T12:56:44.073Z,0.60
2022-10-15T13:01:42.701Z,1.92
2022-10-15T13:06:41.469Z,2.10
2022-10-15T13:16:55.908Z,2.70
2022-10-15T13:21:57.436Z,2.65
2022-10-15T13:27:00.753Z,2.20
2022-10-15T13:32:00.728Z,1.50
2022-10-15T13:37:01.837Z,1.70
2022-10-15T13:42:22.117Z,1.65
2022-10-15T13:47:48.452Z,1.90
2022-10-15T13:52:52.742Z,1.90
2022-10-15T13:57:57.183Z,2.35
2022-10-15T14:03:23.037Z,3.05
2022-10-15T14:08:50.046Z,3.80
2022-10-15T14:13:51.746Z,4.45
2022-10-15T14:18:57.351Z,3.28
2022-10-15T14:24:13.020Z,3.10
2022-10-15T14:29:39.076Z,3.33
2022-10-15T14:34:40.449Z,3.95
2022-10-15T14:39:39.384Z,3.72
2022-10-15T14:44:56.273Z,3.50
2022-10-15T14:49:59.988Z,4.47
2022-10-15T14:55:14.226Z,4.45
2022-10-15T15:00:35.909Z,4.03
2022-10-15T15:05:49.212Z,5.35
2022-10-15T15:15:53.650Z,5.05
2022-10-15T15:20:52.972Z,5.60
2022-10-15T15:25:52.510Z,4.13
2022-10-15T15:30:57.336Z,4.80
2022-10-15T15:36:00.892Z,5.30
2022-10-15T15:41:03.394Z,5.63
2022-10-15T15:46:02.156Z,6.38
2022-10-15T15:51:07.603Z,5.28
2022-10-15T15:56:06.724Z,6.20
2022-10-15T16:01:05.601Z,5.93
2022-10-15T16:06:06.684Z,6.13
2022-10-15T16:11:06.819Z,7.13
2022-10-15T16:16:05.815Z,6.28
2022-10-15T16:21:04.820Z,6.40
2022-10-15T16:26:03.468Z,9.15
2022-10-15T16:31:26.434Z,8.48
2022-10-15T16:36:28.571Z,8.88
2022-10-15T16:41:27.409Z,7.55
2022-10-15T16:46:26.173Z,8.32
2022-10-15T16:51:25.946Z,7.78
2022-10-15T16:56:29.447Z,7.78
2022-10-15T17:01:29.751Z,8.68
2022-10-15T17:06:30.942Z,8.40
2022-10-15T17:11:40.102Z,8.35
2022-10-15T17:16:40.395Z,9.38
2022-10-15T17:21:42.379Z,9.50
2022-10-15T17:26:42.975Z,8.98
2022-10-15T17:31:42.188Z,10.55
2022-10-15T17:36:45.598Z,10.43
2022-10-15T17:41:45.803Z,10.68
2022-10-15T17:46:44.692Z,9.38
2022-10-15T17:51:44.400Z,10.70
2022-10-15T17:56:43.122Z,12.68
2022-10-15T18:01:57.720Z,11.77
2022-10-15T18:06:57.942Z,12.68
2022-10-15T18:12:00.985Z,12.23
2022-10-15T18:22:04.222Z,11.38
2022-10-15T18:27:02.915Z,10.60
2022-10-15T18:32:02.010Z,9.85
2022-10-15T18:37:01.656Z,8.85
2022-10-15T18:42:00.412Z,9.25
2022-10-15T18:46:59.209Z,9.43
2022-10-15T18:52:00.411Z,9.38
2022-10-15T18:57:05.677Z,8.80
2022-10-15T19:02:04.488Z,9.70
2022-10-15T19:07:05.129Z,8.55
2022-10-15T19:12:04.627Z,10.02
2022-10-15T19:17:03.508Z,9.05
2022-10-15T19:22:02.336Z,9.77
2022-10-15T19:27:01.040Z,11.73
2022-10-15T19:32:00.156Z,10.98
2022-10-15T19:36:58.888Z,11.85
2022-10-15T19:41:57.728Z,12.50
2022-10-15T19:46:56.614Z,12.60
2022-10-15T19:51:55.743Z,14.43
2022-10-15T19:56:54.410Z,13.30
2022-10-15T20:01:53.165Z,13.85
2022-10-15T20:06:52.937Z,15.48
2022-10-15T20:11:51.808Z,14.15
2022-10-15T20:16:50.705Z,16.75
2022-10-15T20:21:50.732Z,13.88
2022-10-15T20:26:50.564Z,14.57
2022-10-15T20:31:51.305Z,13.68
2022-10-15T20:36:53.629Z,14.00
2022-10-15T20:41:52.557Z,13.73
2022-10-15T20:47:02.621Z,13.73
2022-10-15T20:52:03.006Z,14.57
2022-10-15T20:57:02.378Z,14.93
2022-10-15T21:02:01.267Z,14.50
2022-10-15T21:07:00.099Z,14.85
2022-10-15T21:11:58.884Z,14.65
2022-10-15T21:16:57.839Z,15.80
2022-10-15T21:21:56.706Z,13.10
2022-10-15T21:26:56.366Z,14.95
2022-10-15T21:31:55.153Z,13.88
2022-10-15T21:36:55.317Z,13.38
2022-10-15T21:41:54.053Z,12.25
2022-10-15T21:46:52.782Z,13.57
2022-10-15T21:51:51.454Z,13.48
2022-10-15T21:56:50.182Z,12.25
2022-10-15T22:01:49.138Z,12.48
2022-10-15T22:06:48.270Z,11.85
2022-10-15T22:11:47.028Z,11.75
2022-10-15T22:16:45.835Z,12.07
2022-10-15T22:21:45.760Z,12.43
2022-10-15T22:26:47.812Z,12.98
2022-10-15T22:31:47.366Z,11.80
2022-10-15T22:36:46.591Z,12.05
2022-10-15T22:41:47.500Z,12.35
2022-10-15T22:46:49.343Z,12.90
2022-10-15T22:51:49.580Z,15.50
2022-10-15T22:56:49.538Z,13.43
2022-10-15T23:01:48.385Z,12.40
2022-10-15T23:06:47.119Z,13.65
2022-10-15T23:11:46.539Z,13.43
2022-10-15T23:16:47.281Z,12.45
2022-10-15T23:21:57.555Z,13.10
2022-10-15T23:26:56.299Z,12.93
2022-10-15T23:31:55.149Z,13.10
2022-10-15T23:36:53.952Z,13.07
2022-10-15T23:41:53.313Z,11.60
2022-10-15T23:46:52.325Z,11.35
2022-10-15T23:51:51.148Z,12.63
2022-10-15T23:56:49.838Z,13.05
